Portada
METAR-TAF:

METAR-TAF

Aeroports :

Kerteh, Malàisia

latitud: 04-32-15N, longitud: 103-25-36E, altitud: 5 m

Observació

L'informe es va fer fa 1 hora i 5 minuts, a les 12:00 UTC
Vent 2 kt amb direcció variable
Temperatura 26°C
Humitat 94%
Pressió 1013 hPa

METAR: WMKE 171200Z AUTO VRB02KT //// // ////// 26/25 Q1013

Hora: 21:05 (13:05 UTC)

Pronòstic

L'informe es va fer fa 2 hores i 5 minuts, a les 11:00 UTC
Pronòstic vàlid del 17 a les 12 UTC al 18 a les 12 UTC
Vent 3 kt amb direcció variable
Visibilitat 10 km o més
Núvols disperses a una alçada de 1500 ft
Temporalment
l' 17 a les 12 UTC al 17 a les 16 UTC
Vent 6 kt del Nord/Nord-Est
Visibilitat: 5000 m
Escasses núvols a una alçada de 500 ft
Núvols disperses a una alçada de 1500 ft
pluja
Evolucionant progressivament
l' 18 a les 00 UTC al 18 a les 02 UTC
Vent 6 kt del Nord-Est
Escasses núvols a una alçada de 1400 ft

TAF: WMKE 171100Z 1712/1812 VRB03KT 9999 SCT015 TEMPO 1712/1716 03006KT 5000 RA FEW005 SCT015 BECMG 1800/1802 05006KT FEW014

Observacions i pronòstics meteorològics de més de 4000 aeroports (METAR i TAF).

Les estacions disponibles són els punts grocs i vermells al mapa.

Posi el ratolí al punt desitjat per veure el nom de l'estació.

Feu clic per veure les observacions i els pronòstics meteorològics.

Per canviar el mapa: feu clic els botons verds amb una creu de color negre per apropar; al botó verd amb un guió per allunyar la imatge; o en les fletxes verdes per a mapes adjacents.


METAR-TAF: